Aktualne dane pomiarowe

Uwaga, wersja testowa! Automatyczne pobieranie danych za pomocą narzędzi lub skryptów to umożliwiających jest zabronione.

Dane meteo z obszaru Polski uzyskane na podstawie depesz SYNOP pobieranych co godzinę z NWS. Najedź myszką na symbol przedstawiony w tabeli, aby uzyskać informacje co do jego znaczenia. Prosimy pamiętać, że to testowa wersja strony, która jeszcze nie jest ukończona. Stworzono również jest krótki FAQ dotyczący korzystania z tej podstrony Anomalie temperatury w chwili obecnej odniesione są do okresu referencyjnego 1951-2016. Okres ten będzie później zmieniony na 1981-2010. Kliknij ikonę aby pobrać plik CSV. Kliknij ikonę aby wygenerować mapę synoptyczną dla danego terminu.

Wybierz Datę:    

        

Zakopane (12625)

Dane terminowe dla wybranej stacji. Kliknij datę, aby otrzymać dane z tego terminu dla wszystkich stacji.

TemperaturaZachmurzenieWiatrCiśnienieOpadyPogoda
 Data t td wb tx tn tg rh  Nt Nl Cl Cm Ch ws wd g1 g2 wx mslp ppp ch 24h 12h t ww ww w1 w2  
2019-06-19 23:00:00 14.8 14.3 14.4--- 9710.0wxwxwxwx1wx---- 916.6 -0.9---wx---
2019-06-19 22:00:00 14.9 14.1 14.3--- 9515.0wx-wx1wx---- 917.0 -0.1---------
2019-06-19 21:00:00 15.0 14.4 14.5--- 9610.0wx-wx1wx--1- 917.1 0.0---wx---
2019-06-19 20:00:00 15.4 14.8 14.9--- 965.0wxwxwxwx0---0- 917.5 0.4---wx---
2019-06-19 19:00:00 15.5 14.7 14.9--- 9510.0wx-wx1wx--1- 917.1 -0.8---------
2019-06-19 18:00:00 15.8 14.7 15.0 23.7 15.6- 9325.0wxwxwxwx1wx-121- 917.1 -0.5- 16.012wx-w1w2--
2019-06-19 17:00:00 15.7 14.7 15.0--- 9410.0wxwxwxwx1wx--1- 917.1 -0.7---wx-w1w2--
2019-06-19 16:00:00 16.3 15.0 15.4--- 922.2wxwxwx1wx--1- 917.9 0.8---wx-w1w2--
2019-06-19 15:00:00 17.1 16.1 16.4--- 946.0wxwxwx1wx---- 917.6 0.1---wx-w1--
2019-06-19 14:00:00 17.5 14.6 15.5--- 8320.0wxwxwx2wx-122- 917.8 0.0---wx-w1w2--
2019-06-19 13:00:00 21.7 15.8 17.8--- 6920.0wxwxwx2wx--2- 917.1 -1.2---wx-w1w2--
2019-06-19 12:00:00 23.1 14.6 17.6--- 5940.0wxwxwx1wx--1- 917.5 -1.4- 0.06------
2019-06-19 11:00:00 22.7 14.0 17.2--- 5840.0wxwxwxwxwx1wx--1- 917.8 -1.4---------
2019-06-19 10:00:00 22.7 14.8 17.6--- 6135.0wxwxwxwxwx2wx--2- 918.3 -0.9---------
2019-06-19 09:00:00 20.9 16.1 17.6--- 7435.0wxwxwxwxwx2wx--2- 918.9 -0.3---------
2019-06-19 08:00:00 19.8 16.1 17.2--- 7930.0wxwxwx1wx---- 919.2 -0.1---------
2019-06-19 07:00:00 19.2 14.7 16.2--- 7530.0wxwxwxwxwx1wx--1- 919.2 -0.1---------
2019-06-19 06:00:00 17.1 14.6 15.4 17.3 11.7 11 8520.0wxwxwxwxwx0---0- 919.2 0.0 6.0 0.012----- 4.2
2019-06-19 05:00:00 14.5 14.2 14.3--- 988.0wxwxwxwxwx0---0- 919.3 0.1---wx---
2019-06-19 04:00:00 12.6 12.4 12.4--- 993.2wxwxwxwxwx0---0- 919.3 -0.2---wx---
2019-06-19 03:00:00 12.0 11.8 11.8--- 996.0wxwxwxwxwx1wx--1- 919.2 -0.7---wx---
2019-06-19 02:00:00 11.8 11.5 11.5--- 984.0wxwxwxwxwx0---0- 919.2 -1.1---wx---
2019-06-19 01:00:00 12.2 12.0 12.0--- 996.0wxwxwxwx1wx--1- 919.5 -0.8---wx---
2019-06-19 00:00:00 12.6 12.3 12.3--- 984.0wxwxwxwx1wx--1- 919.9 -0.5- 0.06wx---
2019-06-18 23:00:00 13.1 12.6 12.7--- 976.0wxwxwxwx1wx--1- 920.3 -0.3---wx---
2019-06-18 22:00:00 13.8 13.2 13.3--- 966.0wx-wx1wx---- 920.3 -0.1---wx---
2019-06-18 21:00:00 15.0 14.2 14.4--- 958.0wxwxwx1wx--1- 920.4 0.0---wx---
2019-06-18 20:00:00 15.9 14.8 15.1--- 934.0wxwxwx1wx--1- 920.6 0.2---wx---
2019-06-18 19:00:00 16.2 15.2 15.5--- 944.0wxwxwxwx1wx--1- 920.4 -0.2---wx---
2019-06-18 18:00:00 17.3 16.0 16.4 20.0 13.8- 926.0wxwxwx1wx--1- 920.4 -0.3- 6.012wx-w1--
2019-06-18 17:00:00 18.0 16.2 16.7--- 8910.0wxwxwxwx1wx---- 920.4 -0.9---------
2019-06-18 16:00:00 18.3 16.6 17.1--- 9010.0wxwxwxwx1wx--1- 920.6 -0.7---------
2019-06-18 15:00:00 18.1 16.4 16.9--- 9010.0wxwxwxwx1wx---- 920.7 -1.0---wx---
2019-06-18 14:00:00 17.5 14.9 15.7--- 852.2wxwxwx1wx--1- 921.3 -0.5---wx---
2019-06-18 13:00:00 19.1 14.6 16.1--- 7525.0wxwxwx2wx--2- 921.3 -0.8---------
2019-06-18 12:00:00 19.1 14.1 15.8--- 7330.0wxwxwx1wx--1- 921.7 -0.4- 0.06------
2019-06-18 11:00:00 19.6 14.4 16.2--- 7220.0wxwxwxwx2wx--2- 921.8 -0.4---------
2019-06-18 10:00:00 17.8 13.5 14.9--- 7625.0wxwxwxwx2wx--2- 922.1 -0.4---------
2019-06-18 09:00:00 17.3 12.6 14.2--- 7435.0wxwxwxwxwx2wx--2- 922.1 -0.5---------
2019-06-18 08:00:00 17.0 11.9 13.7--- 7235.0wxwxwxwx3wx--3- 922.2 -0.2---------
2019-06-18 07:00:00 15.9 11.7 13.2--- 7635.0wx-wx2wx---- 922.5 0.1---------
2019-06-18 06:00:00 13.8 10.8 11.8 15.6 8.7 8 8230.0wx-wx1wx--1- 922.6 0.1 23.7 0.012----- 4.4
2019-06-18 05:00:00 11.8 9.7 10.4--- 8740.0wx-wx1wx--1- 922.4 -0.1---------
2019-06-18 04:00:00 9.6 9.1 9.2--- 9730.0wx-wxwx0---0- 922.4 -0.4---------
2019-06-18 03:00:00 8.8 8.2 8.3--- 9630.0wx-wxwx1wx--1- 922.5 -0.5---------
2019-06-18 02:00:00 8.8 8.0 8.2--- 9535.0wx-wx1wx---- 922.5 -0.7---------
2019-06-18 01:00:00 8.9 8.0 8.2--- 9430.0wx-wx0----- 922.8 -0.7---------
2019-06-18 00:00:00 9.0 7.8 8.2--- 9240.0wx-wx1wx--1- 923.0 -0.6- 0.06------
1.9 ms

 

Print Friendly, PDF & Email